Time;durP1;ratioP1;P1;durP2;ratioP2;P2;SDS_P1;SDS_P2;PMS_P1;PMS_P2;Temp;Humidity;BMP_temperature;BMP_pressure;BME280_temperature;BME280_humidity;BME280_pressure;Samples;Min_cycle;Max_cycle;Signal;HPM_P1;HPM_P2
2023/04/28 00:01:41;;;;;;;6.17;1.83;;;;;;;;;;5058073;28;20206;-58
2023/04/28 00:04:08;;;;;;;3.30;1.87;;;;;;;;;;5057403;28;20204;-60
2023/04/28 00:06:35;;;;;;;4.57;1.90;;;;;;;;;;5055961;28;20243;-59
2023/04/28 00:09:04;;;;;;;1.90;1.80;;;;;;;;;;5057586;28;20207;-59
2023/04/28 00:11:31;;;;;;;2.63;1.83;;;;;;;;;;5056116;28;21064;-59
2023/04/28 00:13:58;;;;;;;2.00;1.90;;;;;;;;;;5058646;28;20211;-59
2023/04/28 00:16:25;;;;;;;2.40;1.90;;;;;;;;;;5056200;28;20203;-59
2023/04/28 00:18:52;;;;;;;1.60;1.50;;;;;;;;;;5058174;28;20606;-59
2023/04/28 00:21:19;;;;;;;3.47;1.40;;;;;;;;;;5056143;28;20213;-59
2023/04/28 00:23:46;;;;;;;1.57;1.53;;;;;;;;;;5056497;28;20290;-59
2023/04/28 00:26:14;;;;;;;1.83;1.63;;;;;;;;;;5054485;28;21061;-59
2023/04/28 00:28:41;;;;;;;1.93;1.70;;;;;;;;;;5054845;28;20353;-59
2023/04/28 00:31:11;;;;;;;1.87;1.77;;;;;;;;;;5057952;28;20675;-59
2023/04/28 00:33:38;;;;;;;1.97;1.73;;;;;;;;;;5057182;28;20196;-59
2023/04/28 00:36:05;;;;;;;2.73;1.90;;;;;;;;;;5057561;28;20264;-59
2023/04/28 00:38:32;;;;;;;2.30;1.80;;;;;;;;;;5058745;28;20206;-59
2023/04/28 00:40:59;;;;;;;2.27;1.40;;;;;;;;;;5059090;28;20285;-59
2023/04/28 00:43:31;;;;;;;3.33;1.37;;;;;;;;;;5056729;28;20743;-60
2023/04/28 00:45:58;;;;;;;1.80;1.60;;;;;;;;;;5056879;28;20826;-59
2023/04/28 00:48:25;;;;;;;2.20;1.90;;;;;;;;;;5056718;28;20204;-58
2023/04/28 00:50:52;;;;;;;1.40;1.40;;;;;;;;;;5058969;28;20206;-61
2023/04/28 00:53:19;;;;;;;1.73;1.63;;;;;;;;;;5058669;28;20215;-59
2023/04/28 00:55:47;;;;;;;4.30;2.03;;;;;;;;;;5055250;28;20199;-59
2023/04/28 00:58:14;;;;;;;1.90;1.80;;;;;;;;;;5055687;28;20663;-59
2023/04/28 01:00:43;;;;;;;1.47;1.40;;;;;;;;;;5054917;28;20923;-59
2023/04/28 01:03:10;;;;;;;1.77;1.67;;;;;;;;;;5055374;28;20203;-59
2023/04/28 01:05:37;;;;;;;4.40;1.80;;;;;;;;;;5054694;28;20207;-59
2023/04/28 01:08:04;;;;;;;1.57;1.47;;;;;;;;;;5054320;28;20231;-59
2023/04/28 01:10:31;;;;;;;2.20;1.60;;;;;;;;;;5055800;28;20368;-59
2023/04/28 01:12:58;;;;;;;1.50;1.40;;;;;;;;;;5055565;28;20240;-59
2023/04/28 01:15:26;;;;;;;2.27;1.50;;;;;;;;;;5055577;28;20250;-59
2023/04/28 01:17:56;;;;;;;1.43;1.20;;;;;;;;;;5057576;28;20200;-59
2023/04/28 01:20:23;;;;;;;2.60;1.60;;;;;;;;;;5058016;28;20215;-59
2023/04/28 01:22:50;;;;;;;1.80;1.70;;;;;;;;;;5057138;28;20220;-59
2023/04/28 01:25:18;;;;;;;1.93;1.80;;;;;;;;;;5055294;28;20208;-59
2023/04/28 01:27:45;;;;;;;1.80;1.70;;;;;;;;;;5057890;28;20276;-58
2023/04/28 01:30:12;;;;;;;1.87;1.70;;;;;;;;;;5056968;28;20211;-58
2023/04/28 01:32:39;;;;;;;1.70;1.60;;;;;;;;;;5057129;28;20638;-58
2023/04/28 01:35:07;;;;;;;1.80;1.70;;;;;;;;;;5055965;28;20214;-58
2023/04/28 01:37:34;;;;;;;1.60;1.50;;;;;;;;;;5056009;28;20195;-58
2023/04/28 01:40:01;;;;;;;2.10;1.90;;;;;;;;;;5065024;28;20280;-58
2023/04/28 01:42:29;;;;;;;1.73;1.63;;;;;;;;;;5067218;28;20239;-58
2023/04/28 01:44:56;;;;;;;2.83;1.83;;;;;;;;;;5065213;28;20268;-58
2023/04/28 01:47:23;;;;;;;2.50;1.67;;;;;;;;;;5060928;28;20328;-59
2023/04/28 01:49:50;;;;;;;1.90;1.80;;;;;;;;;;5056088;28;20819;-58
2023/04/28 01:52:18;;;;;;;1.70;1.60;;;;;;;;;;5056786;28;20254;-58
2023/04/28 01:54:45;;;;;;;1.67;1.60;;;;;;;;;;5056811;28;20241;-58
2023/04/28 01:57:12;;;;;;;2.83;1.80;;;;;;;;;;5066830;28;20203;-58
2023/04/28 01:59:41;;;;;;;2.07;1.97;;;;;;;;;;5056852;28;20673;-58
2023/04/28 02:02:08;;;;;;;2.00;1.63;;;;;;;;;;5049402;28;20204;-59
2023/04/28 02:04:35;;;;;;;1.97;1.87;;;;;;;;;;5047083;28;20685;-58
2023/04/28 02:07:02;;;;;;;4.90;2.03;;;;;;;;;;5062943;28;20319;-58
2023/04/28 02:09:29;;;;;;;1.40;1.40;;;;;;;;;;5064115;28;20211;-58
2023/04/28 02:11:56;;;;;;;2.17;2.00;;;;;;;;;;5051437;28;20216;-58
2023/04/28 02:14:23;;;;;;;2.63;2.47;;;;;;;;;;5053579;28;20260;-58
2023/04/28 02:16:51;;;;;;;2.20;2.00;;;;;;;;;;5053689;28;20608;-59
2023/04/28 02:19:18;;;;;;;4.27;1.90;;;;;;;;;;5047159;28;20261;-58
2023/04/28 02:21:45;;;;;;;2.70;2.23;;;;;;;;;;5058568;28;20288;-58
2023/04/28 02:24:12;;;;;;;2.10;1.93;;;;;;;;;;5067143;28;20304;-58
2023/04/28 02:26:39;;;;;;;2.30;2.20;;;;;;;;;;5054895;28;20670;-58
2023/04/28 02:29:06;;;;;;;2.30;2.10;;;;;;;;;;5048185;28;20320;-59
2023/04/28 02:31:33;;;;;;;2.47;1.97;;;;;;;;;;5057193;28;20264;-58
2023/04/28 02:34:02;;;;;;;4.60;2.30;;;;;;;;;;5060537;28;20732;-58
2023/04/28 02:36:29;;;;;;;4.73;2.00;;;;;;;;;;5046836;28;20257;-58
2023/04/28 02:38:56;;;;;;;2.27;2.07;;;;;;;;;;5052404;28;20215;-58
2023/04/28 02:41:23;;;;;;;2.33;2.00;;;;;;;;;;5066308;28;20227;-58
2023/04/28 02:43:50;;;;;;;3.17;2.40;;;;;;;;;;5049207;28;20211;-58
2023/04/28 02:46:17;;;;;;;5.63;3.27;;;;;;;;;;5060826;28;20212;-58
2023/04/28 02:48:44;;;;;;;2.17;2.07;;;;;;;;;;5049832;28;20219;-58
2023/04/28 02:51:13;;;;;;;3.23;2.10;;;;;;;;;;5065224;28;20200;-58
2023/04/28 02:53:40;;;;;;;2.00;1.90;;;;;;;;;;5052179;28;20629;-58
2023/04/28 02:56:07;;;;;;;2.50;1.97;;;;;;;;;;5045399;28;20200;-58
2023/04/28 02:58:34;;;;;;;5.03;2.30;;;;;;;;;;5044674;28;20226;-58
2023/04/28 03:01:01;;;;;;;2.10;2.00;;;;;;;;;;5065110;28;20286;-58
2023/04/28 03:03:28;;;;;;;2.23;2.07;;;;;;;;;;5068331;28;20649;-58
2023/04/28 03:05:55;;;;;;;2.80;2.47;;;;;;;;;;5052600;28;20207;-58
2023/04/28 03:08:24;;;;;;;2.43;2.23;;;;;;;;;;5051403;28;20259;-58
2023/04/28 03:10:51;;;;;;;2.63;2.07;;;;;;;;;;5054306;28;20219;-58
2023/04/28 03:13:18;;;;;;;2.23;2.10;;;;;;;;;;5050244;28;20227;-59
2023/04/28 03:15:45;;;;;;;2.20;2.10;;;;;;;;;;5064237;28;20242;-58
2023/04/28 03:18:12;;;;;;;1.93;1.77;;;;;;;;;;5070244;28;20235;-59
2023/04/28 03:20:39;;;;;;;1.90;1.90;;;;;;;;;;5060561;28;20814;-58
2023/04/28 03:23:06;;;;;;;2.43;2.13;;;;;;;;;;5063997;28;20223;-58
2023/04/28 03:25:34;;;;;;;2.20;2.10;;;;;;;;;;5062620;28;20247;-58
2023/04/28 03:28:02;;;;;;;2.60;2.40;;;;;;;;;;5065382;28;20309;-58
2023/04/28 03:30:29;;;;;;;2.50;2.37;;;;;;;;;;5060908;28;20270;-58
2023/04/28 03:32:56;;;;;;;2.23;2.03;;;;;;;;;;5063925;28;20207;-58
2023/04/28 03:35:23;;;;;;;1.93;1.90;;;;;;;;;;5055347;28;20666;-58
2023/04/28 03:37:50;;;;;;;3.63;2.17;;;;;;;;;;5066857;28;20200;-58
2023/04/28 03:40:18;;;;;;;5.67;2.80;;;;;;;;;;5069231;28;20210;-58
2023/04/28 03:42:46;;;;;;;2.53;2.30;;;;;;;;;;5065627;28;20231;-58
2023/04/28 03:45:13;;;;;;;2.60;2.40;;;;;;;;;;5053339;28;20214;-58
2023/04/28 03:47:40;;;;;;;2.40;2.00;;;;;;;;;;5063416;28;20312;-58
2023/04/28 03:50:08;;;;;;;2.17;2.07;;;;;;;;;;5061397;28;20199;-59
2023/04/28 03:52:35;;;;;;;2.53;2.27;;;;;;;;;;5049102;28;20208;-58
2023/04/28 03:55:02;;;;;;;2.67;2.47;;;;;;;;;;5066897;28;20646;-58
2023/04/28 03:57:29;;;;;;;4.43;2.50;;;;;;;;;;5061686;28;20199;-58
2023/04/28 03:59:57;;;;;;;2.10;2.00;;;;;;;;;;5059034;28;20219;-59
2023/04/28 04:02:24;;;;;;;4.30;2.50;;;;;;;;;;5047757;28;20667;-58
2023/04/28 04:04:51;;;;;;;2.30;2.20;;;;;;;;;;5048327;28;20667;-58
2023/04/28 04:07:19;;;;;;;2.77;2.20;;;;;;;;;;5048283;28;20234;-58
2023/04/28 04:09:46;;;;;;;2.97;2.77;;;;;;;;;;5048433;28;20266;-58
2023/04/28 04:12:13;;;;;;;2.90;2.70;;;;;;;;;;5055369;28;20267;-58
2023/04/28 04:14:40;;;;;;;3.50;2.50;;;;;;;;;;5067798;28;20206;-58
2023/04/28 04:17:08;;;;;;;2.53;2.33;;;;;;;;;;5064876;28;20207;-58
2023/04/28 04:19:35;;;;;;;2.77;2.53;;;;;;;;;;5067748;28;20245;-58
2023/04/28 04:22:02;;;;;;;2.80;2.23;;;;;;;;;;5067093;28;20752;-58
2023/04/28 04:24:29;;;;;;;3.20;3.00;;;;;;;;;;5057227;28;20211;-58
2023/04/28 04:26:56;;;;;;;2.43;2.33;;;;;;;;;;5048399;28;20696;-58
2023/04/28 04:29:23;;;;;;;3.93;2.60;;;;;;;;;;5048298;28;20732;-58
2023/04/28 04:31:50;;;;;;;2.63;2.53;;;;;;;;;;5049535;28;20200;-58
2023/04/28 04:34:19;;;;;;;3.70;2.70;;;;;;;;;;5048209;28;20838;-58
2023/04/28 04:36:46;;;;;;;2.90;2.60;;;;;;;;;;5054426;28;20207;-58
2023/04/28 04:39:13;;;;;;;6.30;2.47;;;;;;;;;;5067865;28;20210;-58
2023/04/28 04:41:41;;;;;;;2.53;2.33;;;;;;;;;;5066040;28;20234;-58
2023/04/28 04:44:08;;;;;;;5.23;2.60;;;;;;;;;;5067978;28;20747;-58
2023/04/28 04:46:35;;;;;;;3.10;2.90;;;;;;;;;;5059662;28;20263;-58
2023/04/28 04:49:02;;;;;;;2.70;2.60;;;;;;;;;;5066883;28;20598;-58
2023/04/28 04:51:30;;;;;;;2.77;2.60;;;;;;;;;;5067024;28;20199;-58
2023/04/28 04:53:57;;;;;;;2.83;2.33;;;;;;;;;;5067278;28;20975;-58
2023/04/28 04:56:24;;;;;;;3.20;2.30;;;;;;;;;;5059212;28;20200;-58
2023/04/28 04:58:53;;;;;;;3.07;2.80;;;;;;;;;;5062161;28;20203;-58
2023/04/28 05:01:20;;;;;;;2.83;2.63;;;;;;;;;;5058775;28;20208;-59
2023/04/28 05:03:47;;;;;;;2.43;2.23;;;;;;;;;;5059434;28;20946;-59
2023/04/28 05:06:14;;;;;;;2.80;2.60;;;;;;;;;;5050024;28;20253;-58
2023/04/28 05:08:42;;;;;;;3.30;2.60;;;;;;;;;;5047462;28;20231;-58
2023/04/28 05:11:09;;;;;;;4.50;3.17;;;;;;;;;;5051577;28;20207;-59
2023/04/28 05:13:38;;;;;;;8.23;2.50;;;;;;;;;;5047289;28;20211;-58
2023/04/28 05:16:05;;;;;;;2.63;2.43;;;;;;;;;;5050196;28;20284;-58
2023/04/28 05:18:32;;;;;;;3.27;2.77;;;;;;;;;;5064729;28;20256;-59
2023/04/28 05:21:00;;;;;;;2.20;2.10;;;;;;;;;;5062607;28;20200;-58
2023/04/28 05:23:27;;;;;;;3.10;2.90;;;;;;;;;;5066433;28;20288;-58
2023/04/28 05:25:58;;;;;;;2.53;2.40;;;;;;;;;;5058145;28;20265;-59
2023/04/28 05:28:25;;;;;;;4.40;3.07;;;;;;;;;;5047684;28;20228;-59
2023/04/28 05:30:52;;;;;;;2.80;2.50;;;;;;;;;;5062712;28;20199;-58
2023/04/28 05:33:19;;;;;;;2.20;2.10;;;;;;;;;;5053093;28;20953;-59
2023/04/28 05:35:46;;;;;;;3.43;3.00;;;;;;;;;;5060188;28;20313;-58
2023/04/28 05:38:13;;;;;;;2.87;2.67;;;;;;;;;;5047849;28;20204;-59
2023/04/28 05:40:40;;;;;;;5.23;3.53;;;;;;;;;;5049245;28;20281;-59
2023/04/28 05:43:08;;;;;;;4.07;2.60;;;;;;;;;;5051724;28;20299;-59
2023/04/28 05:45:35;;;;;;;4.20;2.93;;;;;;;;;;5048044;28;20230;-58
2023/04/28 05:48:03;;;;;;;2.90;2.80;;;;;;;;;;5061589;28;20282;-69
2023/04/28 05:50:31;;;;;;;3.30;3.03;;;;;;;;;;5050549;28;20199;-59
2023/04/28 05:52:58;;;;;;;2.90;2.70;;;;;;;;;;5054106;28;20208;-59
2023/04/28 05:55:25;;;;;;;3.47;3.13;;;;;;;;;;5057126;28;20584;-59
2023/04/28 05:57:54;;;;;;;3.37;3.03;;;;;;;;;;5066537;28;20224;-59
2023/04/28 06:00:22;;;;;;;3.00;2.53;;;;;;;;;;5060139;28;20207;-58
2023/04/28 06:02:49;;;;;;;3.20;3.00;;;;;;;;;;5064169;28;20673;-59
2023/04/28 06:05:16;;;;;;;4.83;3.03;;;;;;;;;;5054205;28;20216;-58
2023/04/28 06:07:43;;;;;;;3.50;3.20;;;;;;;;;;5061986;28;20264;-59
2023/04/28 06:10:11;;;;;;;4.30;3.47;;;;;;;;;;5050733;28;20261;-59
2023/04/28 06:12:38;;;;;;;4.23;3.20;;;;;;;;;;5058124;28;20204;-58
2023/04/28 06:15:06;;;;;;;3.07;2.90;;;;;;;;;;5051148;28;20261;-59
2023/04/28 06:17:34;;;;;;;3.33;2.73;;;;;;;;;;5064809;28;20627;-58
2023/04/28 06:20:01;;;;;;;5.17;3.77;;;;;;;;;;5050926;28;20207;-59
2023/04/28 06:22:28;;;;;;;6.53;2.67;;;;;;;;;;5048627;28;20228;-59
2023/04/28 06:24:55;;;;;;;3.30;3.00;;;;;;;;;;5055341;28;20211;-59
2023/04/28 06:27:22;;;;;;;3.43;3.17;;;;;;;;;;5054677;28;20570;-58
2023/04/28 06:29:50;;;;;;;3.07;2.87;;;;;;;;;;5061712;28;20216;-59
2023/04/28 06:32:17;;;;;;;3.50;3.00;;;;;;;;;;5055401;28;20293;-58
2023/04/28 06:34:45;;;;;;;5.20;3.23;;;;;;;;;;5064526;28;20230;-58
2023/04/28 06:37:12;;;;;;;4.17;3.30;;;;;;;;;;5070066;28;20280;-58
2023/04/28 06:39:39;;;;;;;4.37;3.40;;;;;;;;;;5068562;28;20665;-59
2023/04/28 06:42:06;;;;;;;5.50;3.17;;;;;;;;;;5069946;28;20288;-58
2023/04/28 06:45:22;;;;;;;3.50;3.20;;;;;;;;;;5069292;28;20263;-60
2023/04/28 06:47:50;;;;;;;4.30;2.93;;;;;;;;;;5036358;28;20203;-59
2023/04/28 06:50:18;;;;;;;5.60;4.30;;;;;;;;;;5051480;28;20929;-58
2023/04/28 06:52:45;;;;;;;4.37;3.47;;;;;;;;;;5049958;28;20268;-59
2023/04/28 06:55:14;;;;;;;4.43;4.10;;;;;;;;;;5055566;28;20635;-58
2023/04/28 06:57:41;;;;;;;6.23;3.57;;;;;;;;;;5049431;28;20750;-59
2023/04/28 07:00:09;;;;;;;4.77;3.40;;;;;;;;;;5049748;28;20204;-58
2023/04/28 07:02:36;;;;;;;4.47;4.07;;;;;;;;;;5049632;28;20630;-58
2023/04/28 07:05:04;;;;;;;6.03;3.90;;;;;;;;;;5049327;28;20269;-59
2023/04/28 07:07:32;;;;;;;5.60;3.90;;;;;;;;;;5049140;28;20389;-59
2023/04/28 07:09:59;;;;;;;6.47;3.80;;;;;;;;;;5049162;28;20235;-59
2023/04/28 07:12:28;;;;;;;4.57;3.30;;;;;;;;;;5049383;28;20216;-58
2023/04/28 07:14:55;;;;;;;4.50;3.57;;;;;;;;;;5049548;28;20216;-59
2023/04/28 07:17:22;;;;;;;4.60;3.97;;;;;;;;;;5047485;28;20301;-59
2023/04/28 07:19:49;;;;;;;5.07;3.37;;;;;;;;;;5048884;28;20270;-58
2023/04/28 07:22:17;;;;;;;3.10;2.90;;;;;;;;;;5048992;28;20250;-58
2023/04/28 07:24:45;;;;;;;3.57;3.27;;;;;;;;;;5048830;28;20285;-58
2023/04/28 07:27:12;;;;;;;4.53;4.00;;;;;;;;;;5048900;28;20306;-59
2023/04/28 07:29:39;;;;;;;3.80;3.50;;;;;;;;;;5048897;28;20236;-59
2023/04/28 07:32:07;;;;;;;4.63;3.87;;;;;;;;;;5048879;28;20211;-59
2023/04/28 07:34:34;;;;;;;4.87;3.87;;;;;;;;;;5048814;28;20203;-59
2023/04/28 07:37:02;;;;;;;3.30;3.10;;;;;;;;;;5055002;28;20196;-59
2023/04/28 07:39:29;;;;;;;4.40;4.00;;;;;;;;;;5067005;28;20685;-58
2023/04/28 07:41:57;;;;;;;6.13;3.90;;;;;;;;;;5058931;28;20786;-73
2023/04/28 07:44:24;;;;;;;5.03;3.90;;;;;;;;;;5051797;28;20688;-60
2023/04/28 07:46:51;;;;;;;5.30;4.07;;;;;;;;;;5051906;28;20546;-59
2023/04/28 07:49:18;;;;;;;6.77;4.07;;;;;;;;;;5068388;28;20231;-60
2023/04/28 07:51:46;;;;;;;5.40;4.33;;;;;;;;;;5068761;28;20207;-59
2023/04/28 07:54:13;;;;;;;4.90;4.33;;;;;;;;;;5068465;28;20701;-59
2023/04/28 07:56:40;;;;;;;6.17;4.60;;;;;;;;;;5068230;28;20263;-59
2023/04/28 07:59:08;;;;;;;7.43;5.00;;;;;;;;;;5065221;28;20310;-58
2023/04/28 08:01:35;;;;;;;4.40;3.87;;;;;;;;;;5066144;28;20934;-60
2023/04/28 08:04:02;;;;;;;5.07;4.33;;;;;;;;;;5067472;28;20206;-59
2023/04/28 08:06:29;;;;;;;5.83;4.13;;;;;;;;;;5067837;28;20222;-60
2023/04/28 08:08:56;;;;;;;10.27;4.40;;;;;;;;;;5067103;28;20705;-59
2023/04/28 08:11:23;;;;;;;6.57;4.50;;;;;;;;;;5067532;28;20211;-59
2023/04/28 08:13:51;;;;;;;5.40;4.13;;;;;;;;;;5067579;28;20254;-59
2023/04/28 08:16:19;;;;;;;4.37;4.07;;;;;;;;;;5065477;28;20298;-59
2023/04/28 08:18:47;;;;;;;6.53;5.00;;;;;;;;;;5067067;28;20211;-59
2023/04/28 08:21:14;;;;;;;5.30;4.47;;;;;;;;;;5067610;28;20217;-60
2023/04/28 08:23:41;;;;;;;4.70;4.30;;;;;;;;;;5066989;28;20230;-60
2023/04/28 08:26:08;;;;;;;4.87;4.20;;;;;;;;;;5066881;28;20203;-59
2023/04/28 08:28:35;;;;;;;5.90;4.73;;;;;;;;;;5065970;28;20217;-60
2023/04/28 08:31:04;;;;;;;7.57;4.53;;;;;;;;;;5066906;28;20211;-59
2023/04/28 08:33:32;;;;;;;6.30;5.20;;;;;;;;;;5067351;28;20235;-59
2023/04/28 08:35:59;;;;;;;6.90;5.20;;;;;;;;;;5059605;28;20234;-59
2023/04/28 08:38:27;;;;;;;11.83;5.27;;;;;;;;;;5062172;28;20211;-59
2023/04/28 08:40:54;;;;;;;10.77;5.13;;;;;;;;;;5066680;28;20214;-59
2023/04/28 08:43:21;;;;;;;7.20;5.07;;;;;;;;;;5065762;28;20313;-60
2023/04/28 08:45:48;;;;;;;5.30;4.67;;;;;;;;;;5066800;28;20221;-60
2023/04/28 08:48:19;;;;;;;6.83;4.73;;;;;;;;;;5066775;28;20199;-60
2023/04/28 08:50:50;;;;;;;6.33;5.17;;;;;;;;;;5067010;28;20238;-60
2023/04/28 08:53:19;;;;;;;5.77;4.93;;;;;;;;;;5066655;28;20684;-59
2023/04/28 08:55:46;;;;;;;8.00;5.67;;;;;;;;;;5048898;28;20216;-59
2023/04/28 08:58:13;;;;;;;10.27;5.17;;;;;;;;;;5045640;28;20231;-59
2023/04/28 09:00:40;;;;;;;6.17;5.43;;;;;;;;;;5063694;28;20211;-59
2023/04/28 09:03:07;;;;;;;13.07;7.30;;;;;;;;;;5063684;28;20227;-60
2023/04/28 09:05:35;;;;;;;14.13;8.73;;;;;;;;;;5065484;28;20214;-59
2023/04/28 09:08:04;;;;;;;22.50;11.43;;;;;;;;;;5065744;28;20215;-59
2023/04/28 09:10:31;;;;;;;7.67;5.60;;;;;;;;;;5065518;28;20254;-60
2023/04/28 09:12:58;;;;;;;7.37;5.53;;;;;;;;;;5065709;28;20236;-59
2023/04/28 09:15:29;;;;;;;8.30;5.93;;;;;;;;;;5063868;28;20217;-60
2023/04/28 09:17:57;;;;;;;9.03;6.07;;;;;;;;;;5065660;28;20602;-59
2023/04/28 09:20:24;;;;;;;7.53;5.73;;;;;;;;;;5060824;28;20285;-60
2023/04/28 09:22:52;;;;;;;6.30;5.67;;;;;;;;;;5046347;28;20231;-59
2023/04/28 09:25:21;;;;;;;15.57;7.37;;;;;;;;;;5063953;28;20266;-60
2023/04/28 09:27:48;;;;;;;11.53;6.40;;;;;;;;;;5066101;28;20227;-60
2023/04/28 09:30:16;;;;;;;7.80;6.53;;;;;;;;;;5065450;28;20380;-60
2023/04/28 09:32:43;;;;;;;12.37;6.47;;;;;;;;;;5066082;28;20222;-59
2023/04/28 09:35:10;;;;;;;12.18;6.53;;;;;;;;;;5064911;28;20330;-60
2023/04/28 09:37:37;;;;;;;10.80;6.82;;;;;;;;;;5049697;28;20210;-60
2023/04/28 09:40:06;;;;;;;8.77;6.22;;;;;;;;;;5060697;28;20206;-60
2023/04/28 09:42:35;;;;;;;8.80;6.47;;;;;;;;;;5065623;28;20976;-60
2023/04/28 09:45:02;;;;;;;8.88;7.07;;;;;;;;;;5065697;28;20207;-60
2023/04/28 09:47:31;;;;;;;10.77;6.57;;;;;;;;;;5065696;28;20206;-60
2023/04/28 09:50:00;;;;;;;7.18;6.20;;;;;;;;;;5065433;28;20225;-60
2023/04/28 09:52:27;;;;;;;7.20;6.47;;;;;;;;;;5066516;28;20226;-60
2023/04/28 09:54:55;;;;;;;12.52;6.80;;;;;;;;;;5066069;28;20215;-60
2023/04/28 09:57:22;;;;;;;7.85;6.35;;;;;;;;;;5060354;28;20281;-60
2023/04/28 09:59:51;;;;;;;8.23;6.40;;;;;;;;;;5047930;28;20607;-60
2023/04/28 10:02:19;;;;;;;7.80;6.00;;;;;;;;;;5055306;28;20621;-63
2023/04/28 10:04:48;;;;;;;7.93;6.13;;;;;;;;;;5055357;28;20249;-60
2023/04/28 10:07:15;;;;;;;9.25;6.30;;;;;;;;;;5056467;28;20219;-59
2023/04/28 10:09:46;;;;;;;9.50;6.38;;;;;;;;;;5059578;28;20664;-60
2023/04/28 10:12:13;;;;;;;7.45;5.97;;;;;;;;;;5069263;28;20226;-60
2023/04/28 10:14:41;;;;;;;8.15;6.72;;;;;;;;;;5063283;28;20215;-60
2023/04/28 10:17:10;;;;;;;8.57;6.38;;;;;;;;;;5072430;28;20285;-59
2023/04/28 10:19:37;;;;;;;11.95;6.53;;;;;;;;;;5072097;28;20210;-60
2023/04/28 10:22:13;;;;;;;9.20;6.47;;;;;;;;;;5071884;28;20215;-59
2023/04/28 10:24:51;;;;;;;9.32;6.50;;;;;;;;;;5070184;28;20199;-59
2023/04/28 10:27:18;;;;;;;8.23;6.35;;;;;;;;;;5051762;28;20256;-60
2023/04/28 10:29:46;;;;;;;10.10;6.43;;;;;;;;;;5058554;28;20242;-60
2023/04/28 10:32:22;;;;;;;8.38;6.00;;;;;;;;;;5069829;28;20226;-60
2023/04/28 10:34:49;;;;;;;11.55;6.25;;;;;;;;;;5068467;28;20309;-60
2023/04/28 10:37:17;;;;;;;13.27;6.88;;;;;;;;;;5072293;28;20218;-60
2023/04/28 10:40:03;;;;;;;7.93;5.60;;;;;;;;;;5071169;28;20230;-60
2023/04/28 10:42:49;;;;;;;9.52;6.53;;;;;;;;;;5064659;28;21388;-60
2023/04/28 10:45:36;;;;;;;9.15;6.75;;;;;;;;;;5059654;28;20203;-61
2023/04/28 10:48:05;;;;;;;8.23;6.53;;;;;;;;;;5066953;28;20306;-71
2023/04/28 10:50:32;;;;;;;7.85;6.20;;;;;;;;;;5068131;28;20702;-65
2023/04/28 10:52:59;;;;;;;9.05;6.47;;;;;;;;;;5070739;28;20658;-59
2023/04/28 10:55:31;;;;;;;8.70;6.38;;;;;;;;;;5058357;28;20228;-59
2023/04/28 10:58:17;;;;;;;8.43;6.63;;;;;;;;;;5073142;28;20248;-60
2023/04/28 11:00:46;;;;;;;7.40;6.10;;;;;;;;;;5061069;28;20692;-59
2023/04/28 11:03:28;;;;;;;7.85;6.40;;;;;;;;;;5053221;28;20211;-60
2023/04/28 11:06:10;;;;;;;7.72;6.25;;;;;;;;;;5053020;28;20258;-60
2023/04/28 11:08:38;;;;;;;6.00;5.05;;;;;;;;;;5060330;28;20293;-60
2023/04/28 11:11:30;;;;;;;7.32;6.18;;;;;;;;;;5072555;28;20276;-60
2023/04/28 11:14:17;;;;;;;7.05;5.80;;;;;;;;;;5052633;28;20341;-60
2023/04/28 11:16:50;;;;;;;6.95;5.65;;;;;;;;;;5052799;28;20293;-61
2023/04/28 11:19:19;;;;;;;7.10;5.38;;;;;;;;;;5052622;28;20211;-60
2023/04/28 11:21:47;;;;;;;6.47;5.40;;;;;;;;;;5051232;28;20219;-60
2023/04/28 11:24:16;;;;;;;6.60;5.25;;;;;;;;;;5054948;28;20693;-60
2023/04/28 11:26:43;;;;;;;9.43;5.72;;;;;;;;;;5069839;28;20211;-60
2023/04/28 11:29:10;;;;;;;8.50;5.50;;;;;;;;;;5069690;28;20316;-60
2023/04/28 11:31:37;;;;;;;5.72;5.25;;;;;;;;;;5069446;28;20288;-60
2023/04/28 11:34:05;;;;;;;5.40;4.85;;;;;;;;;;5069346;28;20218;-61
2023/04/28 11:36:34;;;;;;;5.53;5.03;;;;;;;;;;5069036;28;20223;-60
2023/04/28 11:39:03;;;;;;;7.78;5.68;;;;;;;;;;5069242;28;20261;-61
2023/04/28 11:41:33;;;;;;;6.75;5.70;;;;;;;;;;5068989;28;20258;-60
2023/04/28 11:44:00;;;;;;;5.72;5.22;;;;;;;;;;5068831;28;20728;-60
2023/04/28 11:46:27;;;;;;;6.57;5.45;;;;;;;;;;5068769;28;20207;-60
2023/04/28 11:49:02;;;;;;;6.75;5.57;;;;;;;;;;5068532;28;20207;-61
2023/04/28 11:51:34;;;;;;;6.57;5.75;;;;;;;;;;5068663;28;20716;-61
2023/04/28 11:54:02;;;;;;;7.43;5.70;;;;;;;;;;5061069;28;20362;-61
2023/04/28 11:56:29;;;;;;;5.93;5.40;;;;;;;;;;5068422;28;20303;-61
2023/04/28 11:59:04;;;;;;;6.05;5.50;;;;;;;;;;5068483;28;20681;-61
2023/04/28 12:01:32;;;;;;;7.40;6.05;;;;;;;;;;5068396;28;20209;-61
2023/04/28 12:03:59;;;;;;;7.10;6.30;;;;;;;;;;5068661;28;20585;-61
2023/04/28 12:06:27;;;;;;;7.20;6.05;;;;;;;;;;5068090;28;20219;-61
2023/04/28 12:08:54;;;;;;;7.55;6.18;;;;;;;;;;5068022;28;20779;-61
2023/04/28 12:11:21;;;;;;;7.25;6.40;;;;;;;;;;5068259;28;20727;-61
2023/04/28 12:14:06;;;;;;;6.95;6.18;;;;;;;;;;5067972;28;20309;-61
2023/04/28 12:16:43;;;;;;;9.07;7.35;;;;;;;;;;5068205;28;20416;-61
2023/04/28 12:19:11;;;;;;;9.88;6.88;;;;;;;;;;5052563;28;20204;-61
2023/04/28 12:21:39;;;;;;;6.78;6.07;;;;;;;;;;5050251;28;20208;-61
2023/04/28 12:24:19;;;;;;;7.43;6.20;;;;;;;;;;5067735;28;20235;-61
2023/04/28 12:26:47;;;;;;;5.57;5.07;;;;;;;;;;5065743;28;20575;-60
2023/04/28 12:29:33;;;;;;;5.07;4.53;;;;;;;;;;5048017;28;20273;-61
2023/04/28 12:32:02;;;;;;;5.85;5.28;;;;;;;;;;5051098;28;20230;-58
2023/04/28 12:34:30;;;;;;;7.20;4.85;;;;;;;;;;5067177;28;20239;-58
2023/04/28 12:36:57;;;;;;;5.82;5.30;;;;;;;;;;5057631;28;20771;-61
2023/04/28 12:39:25;;;;;;;5.90;5.40;;;;;;;;;;5053877;28;20829;-62
2023/04/28 12:41:53;;;;;;;5.28;4.78;;;;;;;;;;5067672;28;20242;-60
2023/04/28 12:44:21;;;;;;;5.05;4.40;;;;;;;;;;5063522;28;20207;-60
2023/04/28 12:46:48;;;;;;;4.93;4.50;;;;;;;;;;5047997;28;20273;-60
2023/04/28 12:49:16;;;;;;;3.65;3.35;;;;;;;;;;5048812;28;20200;-60
2023/04/28 12:51:43;;;;;;;3.92;3.63;;;;;;;;;;5055068;28;20238;-60
2023/04/28 12:54:10;;;;;;;5.10;4.10;;;;;;;;;;5065783;28;20741;-60
2023/04/28 12:56:37;;;;;;;5.50;4.13;;;;;;;;;;5047707;28;20212;-61
2023/04/28 12:59:05;;;;;;;4.28;3.97;;;;;;;;;;5047746;28;20211;-64
2023/04/28 13:01:32;;;;;;;4.03;3.75;;;;;;;;;;5045060;28;20211;-62
2023/04/28 13:03:59;;;;;;;4.05;3.75;;;;;;;;;;5051665;28;20203;-61
2023/04/28 13:06:29;;;;;;;4.20;3.90;;;;;;;;;;5065743;28;20215;-60
2023/04/28 13:08:56;;;;;;;4.43;4.10;;;;;;;;;;5065305;28;20222;-60
2023/04/28 13:11:25;;;;;;;4.20;3.90;;;;;;;;;;5062936;28;20241;-60
2023/04/28 13:13:53;;;;;;;4.80;4.40;;;;;;;;;;5055057;28;20698;-60
2023/04/28 13:16:20;;;;;;;4.95;4.30;;;;;;;;;;5065833;28;20242;-61
2023/04/28 13:18:47;;;;;;;4.35;3.95;;;;;;;;;;5058459;28;20210;-60
2023/04/28 13:21:14;;;;;;;3.72;3.50;;;;;;;;;;5060139;28;20585;-61
2023/04/28 13:23:43;;;;;;;4.45;4.07;;;;;;;;;;5047819;28;20300;-61
2023/04/28 13:26:10;;;;;;;3.97;3.70;;;;;;;;;;5066834;28;20284;-60
2023/04/28 13:28:37;;;;;;;3.97;3.70;;;;;;;;;;5052128;28;20207;-60
2023/04/28 13:31:04;;;;;;;3.72;3.53;;;;;;;;;;5058093;28;20219;-62
2023/04/28 13:33:31;;;;;;;2.97;2.85;;;;;;;;;;5050318;28;20269;-61
2023/04/28 13:35:58;;;;;;;3.60;3.30;;;;;;;;;;5062775;28;20624;-61
2023/04/28 13:38:25;;;;;;;2.70;2.60;;;;;;;;;;5055958;28;20853;-60
2023/04/28 13:40:54;;;;;;;2.80;2.70;;;;;;;;;;5053588;28;20207;-61
2023/04/28 13:43:21;;;;;;;3.28;3.08;;;;;;;;;;5050817;28;20219;-61
2023/04/28 13:45:49;;;;;;;3.03;2.85;;;;;;;;;;5045526;28;20674;-60
2023/04/28 13:48:16;;;;;;;2.55;2.35;;;;;;;;;;5054907;28;20319;-61
2023/04/28 13:50:43;;;;;;;2.70;2.60;;;;;;;;;;5054097;28;20226;-61
2023/04/28 13:53:10;;;;;;;2.20;2.10;;;;;;;;;;5062658;28;20199;-61
2023/04/28 13:55:37;;;;;;;2.42;2.33;;;;;;;;;;5056900;28;20215;-61
2023/04/28 13:58:06;;;;;;;2.40;2.20;;;;;;;;;;5062623;28;20225;-61
2023/04/28 14:00:33;;;;;;;2.08;2.05;;;;;;;;;;5066310;28;20593;-61
2023/04/28 14:03:01;;;;;;;2.22;2.00;;;;;;;;;;5046755;28;20212;-61
2023/04/28 14:05:28;;;;;;;2.38;2.15;;;;;;;;;;5051586;28;20664;-60
2023/04/28 14:07:55;;;;;;;2.30;2.20;;;;;;;;;;5045746;28;20253;-61
2023/04/28 14:10:23;;;;;;;1.83;1.83;;;;;;;;;;5046078;28;20277;-61
2023/04/28 14:12:50;;;;;;;3.58;2.60;;;;;;;;;;5058460;28;20207;-59
2023/04/28 14:15:18;;;;;;;2.60;2.50;;;;;;;;;;5066100;28;20210;-61
2023/04/28 14:17:45;;;;;;;3.15;2.95;;;;;;;;;;5051121;28;20257;-60
2023/04/28 14:20:13;;;;;;;3.03;2.92;;;;;;;;;;5062500;28;20222;-62
2023/04/28 14:22:40;;;;;;;2.72;2.63;;;;;;;;;;5063604;28;20215;-61
2023/04/28 14:25:07;;;;;;;3.53;3.33;;;;;;;;;;5059355;28;20219;-62
2023/04/28 14:27:34;;;;;;;5.00;3.38;;;;;;;;;;5059475;28;20560;-62
2023/04/28 14:30:02;;;;;;;3.28;3.08;;;;;;;;;;5046182;28;20207;-61
2023/04/28 14:32:31;;;;;;;3.17;3.00;;;;;;;;;;5050479;28;20258;-61
2023/04/28 14:34:58;;;;;;;3.92;3.40;;;;;;;;;;5045694;28;20231;-61
2023/04/28 14:37:25;;;;;;;3.45;3.25;;;;;;;;;;5049651;28;20568;-61
2023/04/28 14:39:52;;;;;;;3.80;3.50;;;;;;;;;;5052915;28;20207;-61
2023/04/28 14:42:20;;;;;;;2.80;2.70;;;;;;;;;;5052524;28;20235;-63
2023/04/28 14:44:47;;;;;;;3.08;2.47;;;;;;;;;;5065730;28;20211;-60
2023/04/28 14:47:14;;;;;;;2.75;2.65;;;;;;;;;;5049666;28;20303;-62
2023/04/28 14:49:43;;;;;;;2.22;2.13;;;;;;;;;;5056926;28;20292;-61